Time;durP1;ratioP1;P1;durP2;ratioP2;P2;SDS_P1;SDS_P2;PMS_P1;PMS_P2;Temp;Humidity;BMP_temperature;BMP_pressure;BME280_temperature;BME280_humidity;BME280_pressure;Samples;Min_cycle;Max_cycle;Signal;HPM_P1;HPM_P2
2024/02/29 00:02:16;;;;;;;3.92;1.50;;;;;;;;;;5090098;28;20060;-79
2024/02/29 00:04:46;;;;;;;3.00;1.23;;;;;;;;;;5090003;28;20040;-82
2024/02/29 00:07:16;;;;;;;4.82;1.55;;;;;;;;;;5090295;28;20095;-82
2024/02/29 00:09:46;;;;;;;3.53;0.85;;;;;;;;;;5072821;28;20461;-80
2024/02/29 00:12:16;;;;;;;4.05;1.35;;;;;;;;;;5090328;28;20043;-82
2024/02/29 00:14:46;;;;;;;3.13;1.15;;;;;;;;;;5091440;28;20048;-81
2024/02/29 00:17:17;;;;;;;2.60;1.08;;;;;;;;;;5091142;28;20047;-84
2024/02/29 00:19:48;;;;;;;3.08;1.23;;;;;;;;;;5091442;28;20044;-82
2024/02/29 00:22:17;;;;;;;2.63;0.70;;;;;;;;;;5091041;28;20132;-80
2024/02/29 00:24:48;;;;;;;3.08;1.17;;;;;;;;;;5090458;28;20422;-84
2024/02/29 00:27:18;;;;;;;3.15;1.00;;;;;;;;;;5072339;28;20066;-81
2024/02/29 00:29:49;;;;;;;2.65;0.80;;;;;;;;;;5091232;28;20040;-81
2024/02/29 00:32:19;;;;;;;3.63;1.08;;;;;;;;;;5091555;28;20538;-83
2024/02/29 00:34:49;;;;;;;4.57;1.02;;;;;;;;;;5091161;28;20517;-82
2024/02/29 00:37:19;;;;;;;1.83;1.00;;;;;;;;;;5091333;28;20071;-82
2024/02/29 00:39:49;;;;;;;1.23;0.57;;;;;;;;;;5070064;28;20040;-81
2024/02/29 00:42:19;;;;;;;1.80;0.90;;;;;;;;;;5081105;28;20067;-82
2024/02/29 00:44:50;;;;;;;4.07;0.80;;;;;;;;;;5080791;28;20040;-83
2024/02/29 00:47:20;;;;;;;3.10;1.00;;;;;;;;;;5088413;28;20044;-81
2024/02/29 00:49:50;;;;;;;5.35;0.90;;;;;;;;;;5091541;28;20052;-82
2024/02/29 00:52:20;;;;;;;3.80;0.90;;;;;;;;;;5090368;28;20052;-83
2024/02/29 00:54:51;;;;;;;16.80;2.25;;;;;;;;;;5094147;28;20051;-83
2024/02/29 00:57:22;;;;;;;5.05;1.10;;;;;;;;;;5095293;28;20047;-81
2024/02/29 00:59:52;;;;;;;3.35;1.17;;;;;;;;;;5093700;28;20066;-82
2024/02/29 01:02:23;;;;;;;3.47;1.23;;;;;;;;;;5093486;28;20040;-88
2024/02/29 01:04:55;;;;;;;5.93;1.50;;;;;;;;;;5075838;28;20056;-83
2024/02/29 01:07:27;;;;;;;6.82;1.25;;;;;;;;;;5076989;28;20040;-82
2024/02/29 01:09:58;;;;;;;3.80;1.00;;;;;;;;;;5077308;28;20044;-83
2024/02/29 01:12:28;;;;;;;10.82;1.10;;;;;;;;;;5093763;28;20051;-82
2024/02/29 01:14:58;;;;;;;3.15;1.20;;;;;;;;;;5076922;28;20037;-86
2024/02/29 01:17:28;;;;;;;6.57;1.27;;;;;;;;;;5093459;28;20040;-83
2024/02/29 01:19:58;;;;;;;7.45;1.15;;;;;;;;;;5094801;28;20048;-82
2024/02/29 01:22:28;;;;;;;4.00;1.10;;;;;;;;;;5089721;28;20048;-85
2024/02/29 01:24:58;;;;;;;4.18;1.33;;;;;;;;;;5074538;28;20051;-87
2024/02/29 01:27:28;;;;;;;2.75;1.13;;;;;;;;;;5074271;28;20056;-82
2024/02/29 01:29:58;;;;;;;6.65;1.08;;;;;;;;;;5074320;28;20422;-84
2024/02/29 01:32:28;;;;;;;5.40;1.30;;;;;;;;;;5072770;28;20059;-84
2024/02/29 01:35:04;;;;;;;3.00;1.20;;;;;;;;;;5074105;28;20402;-84
2024/02/29 01:37:34;;;;;;;4.82;1.05;;;;;;;;;;5074427;28;20441;-82
2024/02/29 01:40:05;;;;;;;8.30;1.42;;;;;;;;;;5073963;28;20049;-83
2024/02/29 01:42:35;;;;;;;6.50;1.70;;;;;;;;;;5074083;28;20387;-88
2024/02/29 01:45:06;;;;;;;6.50;1.10;;;;;;;;;;5074218;28;20049;-83
2024/02/29 01:47:36;;;;;;;6.32;1.38;;;;;;;;;;5074239;28;20041;-86
2024/02/29 01:50:09;;;;;;;6.18;1.63;;;;;;;;;;5055806;28;20075;-84
2024/02/29 01:52:40;;;;;;;6.95;1.38;;;;;;;;;;5065987;28;20499;-84
2024/02/29 01:55:11;;;;;;;7.20;1.50;;;;;;;;;;5040635;28;20040;-84
2024/02/29 01:57:42;;;;;;;6.13;1.73;;;;;;;;;;5057555;28;20048;-82
2024/02/29 02:00:13;;;;;;;4.07;1.30;;;;;;;;;;5056868;28;20048;-85
2024/02/29 02:02:45;;;;;;;7.38;1.42;;;;;;;;;;5075586;28;20044;-82
2024/02/29 02:05:15;;;;;;;5.97;1.60;;;;;;;;;;5075374;28;20144;-84
2024/02/29 02:07:46;;;;;;;3.13;1.23;;;;;;;;;;5075252;28;20049;-84
2024/02/29 02:10:17;;;;;;;6.05;1.40;;;;;;;;;;5075848;28;20055;-82
2024/02/29 02:12:48;;;;;;;4.78;1.60;;;;;;;;;;5058179;28;20047;-83
2024/02/29 02:15:18;;;;;;;4.03;1.30;;;;;;;;;;5075950;28;20059;-82
2024/02/29 02:17:49;;;;;;;3.72;1.60;;;;;;;;;;5075108;28;20406;-83
2024/02/29 02:20:20;;;;;;;;;;;;;;;;;;5075682;28;20056;-84
2024/02/29 02:22:51;;;;;;;4.60;1.20;;;;;;;;;;5075366;28;19920;-85
2024/02/29 02:25:21;;;;;;;6.53;1.30;;;;;;;;;;5075405;28;20051;-83
2024/02/29 02:27:51;;;;;;;5.60;1.25;;;;;;;;;;5075884;28;20051;-84
2024/02/29 02:30:21;;;;;;;5.85;1.30;;;;;;;;;;5056699;28;20048;-82
2024/02/29 02:32:51;;;;;;;4.90;1.23;;;;;;;;;;5075186;28;20048;-83
2024/02/29 02:35:21;;;;;;;4.10;1.30;;;;;;;;;;5074793;28;20052;-82
2024/02/29 02:37:51;;;;;;;4.43;1.35;;;;;;;;;;5075428;28;20041;-84
2024/02/29 02:40:22;;;;;;;5.45;1.67;;;;;;;;;;5075077;28;20044;-83
2024/02/29 02:42:53;;;;;;;4.47;1.30;;;;;;;;;;5075061;28;20048;-86
2024/02/29 02:45:24;;;;;;;4.03;1.30;;;;;;;;;;5075114;28;20068;-82
2024/02/29 02:47:55;;;;;;;8.07;1.05;;;;;;;;;;5075236;28;20045;-83
2024/02/29 02:50:25;;;;;;;2.13;1.10;;;;;;;;;;5075171;28;20344;-82
2024/02/29 02:52:56;;;;;;;4.20;0.90;;;;;;;;;;5075670;28;20053;-82
2024/02/29 02:55:27;;;;;;;2.80;0.90;;;;;;;;;;5075261;28;20497;-82
2024/02/29 02:57:58;;;;;;;3.00;0.70;;;;;;;;;;5074548;28;20501;-83
2024/02/29 03:00:29;;;;;;;3.88;0.70;;;;;;;;;;5074548;28;20048;-83
2024/02/29 03:03:00;;;;;;;2.33;0.60;;;;;;;;;;5056531;28;20056;-83
2024/02/29 03:05:30;;;;;;;1.73;0.65;;;;;;;;;;5074591;28;20104;-84
2024/02/29 03:08:03;;;;;;;1.52;0.77;;;;;;;;;;5074403;28;20044;-84
2024/02/29 03:10:34;;;;;;;4.50;0.68;;;;;;;;;;5072553;28;20041;-83
2024/02/29 03:13:06;;;;;;;4.68;1.05;;;;;;;;;;5072355;28;20037;-84
2024/02/29 03:15:36;;;;;;;2.75;0.70;;;;;;;;;;5071676;28;20048;-84
2024/02/29 03:18:09;;;;;;;3.08;0.85;;;;;;;;;;5074077;28;20048;-83
2024/02/29 03:20:39;;;;;;;1.80;0.65;;;;;;;;;;5055280;28;20040;-84
2024/02/29 03:23:11;;;;;;;5.13;0.80;;;;;;;;;;5074660;28;20048;-82
2024/02/29 03:25:40;;;;;;;3.28;0.70;;;;;;;;;;5038965;28;20048;-83
2024/02/29 03:28:10;;;;;;;2.88;0.50;;;;;;;;;;5070807;28;20051;-82
2024/02/29 03:30:47;;;;;;;1.52;0.80;;;;;;;;;;5054100;28;20495;-82
2024/02/29 03:33:17;;;;;;;5.05;0.52;;;;;;;;;;5071788;28;20049;-86
2024/02/29 03:35:49;;;;;;;2.63;0.80;;;;;;;;;;5072106;28;20510;-83
2024/02/29 03:38:19;;;;;;;2.83;1.13;;;;;;;;;;5054602;28;20383;-82
2024/02/29 03:40:51;;;;;;;4.10;1.02;;;;;;;;;;5054969;28;20052;-84
2024/02/29 03:43:21;;;;;;;5.22;0.85;;;;;;;;;;5073990;28;20055;-82
2024/02/29 03:45:51;;;;;;;3.00;0.70;;;;;;;;;;5072887;28;20052;-83
2024/02/29 03:48:21;;;;;;;1.83;0.80;;;;;;;;;;5073418;28;20044;-84
2024/02/29 03:50:52;;;;;;;4.57;0.95;;;;;;;;;;5073269;28;20049;-83
2024/02/29 03:53:23;;;;;;;2.28;0.88;;;;;;;;;;5055840;28;20053;-82
2024/02/29 03:55:54;;;;;;;4.40;0.80;;;;;;;;;;5073613;28;20052;-81
2024/02/29 03:58:24;;;;;;;5.18;0.82;;;;;;;;;;5054752;28;20402;-85
2024/02/29 04:00:54;;;;;;;3.45;0.70;;;;;;;;;;5073023;28;20041;-82
2024/02/29 04:03:24;;;;;;;12.20;1.10;;;;;;;;;;5056136;28;20391;-83
2024/02/29 04:05:55;;;;;;;5.75;0.80;;;;;;;;;;5073270;28;20391;-82
2024/02/29 04:08:25;;;;;;;3.15;0.80;;;;;;;;;;5073490;28;20059;-83
2024/02/29 04:10:55;;;;;;;2.40;0.63;;;;;;;;;;5054958;28;20422;-83
2024/02/29 04:13:25;;;;;;;12.73;2.97;;;;;;;;;;5073097;28;20060;-81
2024/02/29 04:15:55;;;;;;;6.63;1.10;;;;;;;;;;5073181;28;20040;-82
2024/02/29 04:18:27;;;;;;;2.78;0.60;;;;;;;;;;5073655;28;20040;-83
2024/02/29 04:20:59;;;;;;;4.53;0.80;;;;;;;;;;5073325;28;20040;-82
2024/02/29 04:23:29;;;;;;;10.15;1.10;;;;;;;;;;5073545;28;20045;-82
2024/02/29 04:26:01;;;;;;;2.72;0.90;;;;;;;;;;5073156;28;20055;-82
2024/02/29 04:28:31;;;;;;;3.40;0.60;;;;;;;;;;5073497;28;20044;-82
2024/02/29 04:31:05;;;;;;;2.97;0.85;;;;;;;;;;5054764;28;20402;-83
2024/02/29 04:33:35;;;;;;;3.47;0.80;;;;;;;;;;5072045;28;20051;-83
2024/02/29 04:36:05;;;;;;;5.78;0.85;;;;;;;;;;5055329;28;20040;-82
2024/02/29 04:38:35;;;;;;;6.07;1.13;;;;;;;;;;5071746;28;20056;-81
2024/02/29 04:41:05;;;;;;;3.65;0.93;;;;;;;;;;5073098;28;20051;-82
2024/02/29 04:43:37;;;;;;;4.22;0.82;;;;;;;;;;5055093;28;20102;-82
2024/02/29 04:46:08;;;;;;;3.42;0.80;;;;;;;;;;5055508;28;20048;-81
2024/02/29 04:48:38;;;;;;;4.53;1.00;;;;;;;;;;5054331;28;20059;-81
2024/02/29 04:51:08;;;;;;;3.58;0.95;;;;;;;;;;5077652;28;20048;-82
2024/02/29 04:53:37;;;;;;;4.47;0.80;;;;;;;;;;5080115;28;20040;-81
2024/02/29 04:56:08;;;;;;;3.95;0.90;;;;;;;;;;5078304;28;20055;-82
2024/02/29 04:58:38;;;;;;;10.48;1.83;;;;;;;;;;5075747;28;20057;-82
2024/02/29 05:01:08;;;;;;;3.30;0.77;;;;;;;;;;5094250;28;20049;-80
2024/02/29 05:03:39;;;;;;;7.63;0.70;;;;;;;;;;5074595;28;20064;-79
2024/02/29 05:06:14;;;;;;;2.47;0.90;;;;;;;;;;5096735;28;20045;-80
2024/02/29 05:08:44;;;;;;;4.57;0.73;;;;;;;;;;5112502;28;20040;-79
2024/02/29 05:11:16;;;;;;;6.55;0.82;;;;;;;;;;5093319;28;20055;-82
2024/02/29 05:13:48;;;;;;;4.55;0.93;;;;;;;;;;5072744;28;20045;-85
2024/02/29 05:16:20;;;;;;;3.58;1.00;;;;;;;;;;5054654;28;20048;-84
2024/02/29 05:18:51;;;;;;;8.38;1.10;;;;;;;;;;5063849;28;20445;-83
2024/02/29 05:21:22;;;;;;;5.05;0.90;;;;;;;;;;5092942;28;20055;-83
2024/02/29 05:23:52;;;;;;;3.83;0.80;;;;;;;;;;5092640;28;20048;-85
2024/02/29 05:26:23;;;;;;;4.38;1.30;;;;;;;;;;5085657;28;20083;-84
2024/02/29 05:28:53;;;;;;;3.28;0.98;;;;;;;;;;5072361;28;20041;-82
2024/02/29 05:31:23;;;;;;;10.00;1.13;;;;;;;;;;5073287;28;20063;-83
2024/02/29 05:33:53;;;;;;;3.60;0.73;;;;;;;;;;5086468;28;20414;-84
2024/02/29 05:36:23;;;;;;;3.65;0.82;;;;;;;;;;5071243;28;20170;-86
2024/02/29 05:38:54;;;;;;;8.93;1.00;;;;;;;;;;5074329;28;20036;-84
2024/02/29 05:41:24;;;;;;;5.18;0.90;;;;;;;;;;5075913;28;20060;-84
2024/02/29 05:43:55;;;;;;;5.18;1.05;;;;;;;;;;5090710;28;20043;-84
2024/02/29 05:46:25;;;;;;;4.47;1.05;;;;;;;;;;5096812;28;20052;-83
2024/02/29 05:48:57;;;;;;;4.82;0.90;;;;;;;;;;5096538;28;20044;-83
2024/02/29 05:51:27;;;;;;;2.97;0.90;;;;;;;;;;5096469;28;20059;-84
2024/02/29 05:53:57;;;;;;;9.93;0.93;;;;;;;;;;5096482;28;20048;-81
2024/02/29 05:56:27;;;;;;;3.95;0.80;;;;;;;;;;5096171;28;20040;-81
2024/02/29 05:59:00;;;;;;;5.15;1.10;;;;;;;;;;5078674;28;20047;-84
2024/02/29 06:01:31;;;;;;;4.38;0.80;;;;;;;;;;5095265;28;20052;-84
2024/02/29 06:04:01;;;;;;;4.80;1.00;;;;;;;;;;5096155;28;20058;-83
2024/02/29 06:06:31;;;;;;;5.93;1.10;;;;;;;;;;5095915;28;20413;-85
2024/02/29 06:09:02;;;;;;;5.55;1.02;;;;;;;;;;5094703;28;20052;-84
2024/02/29 06:11:33;;;;;;;5.00;1.00;;;;;;;;;;5094414;28;20054;-83
2024/02/29 06:14:04;;;;;;;5.75;1.30;;;;;;;;;;5096300;28;20070;-84
2024/02/29 06:16:35;;;;;;;6.47;0.98;;;;;;;;;;5096037;28;20044;-82
2024/02/29 06:19:05;;;;;;;3.22;0.85;;;;;;;;;;5095806;28;20044;-83
2024/02/29 06:21:35;;;;;;;3.22;0.90;;;;;;;;;;5096189;28;20040;-82
2024/02/29 06:24:05;;;;;;;7.00;1.00;;;;;;;;;;5095565;28;20048;-82
2024/02/29 06:26:35;;;;;;;4.35;1.00;;;;;;;;;;5078383;28;20051;-84
2024/02/29 06:29:05;;;;;;;4.95;0.80;;;;;;;;;;5093759;28;20060;-83
2024/02/29 06:31:35;;;;;;;7.57;1.17;;;;;;;;;;5076047;28;20056;-83
2024/02/29 06:34:05;;;;;;;6.82;1.17;;;;;;;;;;5076774;28;20052;-82
2024/02/29 06:36:36;;;;;;;3.53;1.30;;;;;;;;;;5094190;28;20055;-83
2024/02/29 06:39:07;;;;;;;4.28;1.15;;;;;;;;;;5093942;28;20055;-82
2024/02/29 06:41:41;;;;;;;6.82;1.55;;;;;;;;;;5092454;28;20593;-85
2024/02/29 06:44:12;;;;;;;2.83;1.00;;;;;;;;;;5095231;28;20051;-84
2024/02/29 06:46:42;;;;;;;3.13;1.10;;;;;;;;;;5095128;28;20048;-84
2024/02/29 06:49:12;;;;;;;11.23;1.55;;;;;;;;;;5093507;28;20192;-82
2024/02/29 06:51:42;;;;;;;4.72;1.30;;;;;;;;;;5076372;28;20115;-82
2024/02/29 06:54:11;;;;;;;4.70;1.38;;;;;;;;;;5077549;28;20044;-83
2024/02/29 06:56:42;;;;;;;3.60;0.88;;;;;;;;;;5095168;28;20054;-80
2024/02/29 06:59:12;;;;;;;6.90;1.30;;;;;;;;;;5095408;28;20048;-82
2024/02/29 07:01:42;;;;;;;6.55;1.08;;;;;;;;;;5095354;28;20056;-81
2024/02/29 07:04:13;;;;;;;6.85;1.25;;;;;;;;;;5094922;28;20055;-82
2024/02/29 07:06:43;;;;;;;7.72;1.58;;;;;;;;;;5093495;28;20478;-84
2024/02/29 07:09:13;;;;;;;3.97;1.00;;;;;;;;;;5093303;28;20062;-81
2024/02/29 07:11:43;;;;;;;5.22;1.15;;;;;;;;;;5094497;28;20040;-82
2024/02/29 07:14:13;;;;;;;6.55;1.02;;;;;;;;;;5094370;28;20044;-82
2024/02/29 07:16:43;;;;;;;3.83;1.00;;;;;;;;;;5076100;28;20055;-85
2024/02/29 07:19:13;;;;;;;6.55;1.23;;;;;;;;;;5094307;28;20052;-81
2024/02/29 07:21:44;;;;;;;1.63;1.00;;;;;;;;;;5093474;28;20059;-81
2024/02/29 07:24:14;;;;;;;4.93;1.10;;;;;;;;;;5093319;28;20055;-81
2024/02/29 07:26:44;;;;;;;9.23;1.00;;;;;;;;;;5093223;28;20126;-81
2024/02/29 07:29:14;;;;;;;5.45;1.10;;;;;;;;;;5092527;28;20044;-83
2024/02/29 07:31:47;;;;;;;4.45;1.45;;;;;;;;;;5092610;28;20060;-84
2024/02/29 07:34:22;;;;;;;4.65;1.00;;;;;;;;;;5078097;28;20055;-82
2024/02/29 07:36:53;;;;;;;6.13;1.60;;;;;;;;;;5094178;28;20039;-84
2024/02/29 07:39:23;;;;;;;4.35;1.10;;;;;;;;;;5059677;28;20048;-81
2024/02/29 07:41:54;;;;;;;7.07;1.23;;;;;;;;;;5094747;28;20469;-82
2024/02/29 07:44:25;;;;;;;6.75;1.13;;;;;;;;;;5094584;28;20048;-84
2024/02/29 07:46:56;;;;;;;5.18;0.82;;;;;;;;;;5093105;28;20040;-81
2024/02/29 07:49:27;;;;;;;8.25;1.35;;;;;;;;;;5076108;28;20509;-82
2024/02/29 07:51:57;;;;;;;4.28;1.10;;;;;;;;;;5092511;28;20060;-83
2024/02/29 07:54:27;;;;;;;7.38;1.13;;;;;;;;;;5093672;28;20048;-82
2024/02/29 07:56:57;;;;;;;5.60;0.98;;;;;;;;;;5093746;28;20497;-83
2024/02/29 07:59:30;;;;;;;6.03;1.20;;;;;;;;;;5093433;28;20052;-84
2024/02/29 08:02:00;;;;;;;4.63;1.00;;;;;;;;;;5077958;28;20037;-82
2024/02/29 08:04:32;;;;;;;9.05;1.23;;;;;;;;;;5072607;28;20063;-82
2024/02/29 08:07:02;;;;;;;2.05;0.90;;;;;;;;;;5073331;28;20071;-82
2024/02/29 08:09:34;;;;;;;8.98;1.15;;;;;;;;;;5073191;28;20478;-82
2024/02/29 08:12:06;;;;;;;4.90;1.05;;;;;;;;;;5088143;28;20048;-83
2024/02/29 08:14:37;;;;;;;2.58;1.40;;;;;;;;;;5077391;28;20410;-83
2024/02/29 08:17:07;;;;;;;5.00;1.00;;;;;;;;;;5063219;28;20059;-85
2024/02/29 08:19:37;;;;;;;5.07;1.27;;;;;;;;;;5093141;28;20494;-84
2024/02/29 08:22:07;;;;;;;5.53;1.33;;;;;;;;;;5093400;28;20386;-83
2024/02/29 08:24:38;;;;;;;6.53;1.98;;;;;;;;;;5076592;28;20100;-83
2024/02/29 08:27:08;;;;;;;9.23;1.55;;;;;;;;;;5058145;28;20052;-82
2024/02/29 08:29:38;;;;;;;6.85;2.00;;;;;;;;;;5074617;28;20051;-81
2024/02/29 08:32:08;;;;;;;9.32;1.67;;;;;;;;;;5091695;28;20070;-81
2024/02/29 08:34:44;;;;;;;3.15;1.13;;;;;;;;;;5091808;28;20092;-82
2024/02/29 08:37:14;;;;;;;3.95;1.30;;;;;;;;;;5094113;28;20044;-81
2024/02/29 08:39:44;;;;;;;8.07;1.20;;;;;;;;;;5073953;28;20044;-81
2024/02/29 08:42:14;;;;;;;6.28;1.35;;;;;;;;;;5091266;28;20422;-81
2024/02/29 08:44:44;;;;;;;12.68;2.10;;;;;;;;;;5075652;28;20047;-83
2024/02/29 08:47:14;;;;;;;4.47;1.40;;;;;;;;;;5092879;28;20059;-84
2024/02/29 08:49:44;;;;;;;5.38;1.20;;;;;;;;;;5091752;28;20048;-82
2024/02/29 08:52:14;;;;;;;9.55;1.50;;;;;;;;;;5092834;28;20062;-82
2024/02/29 08:54:44;;;;;;;14.60;1.42;;;;;;;;;;5092150;28;20387;-85
2024/02/29 08:57:14;;;;;;;7.32;1.30;;;;;;;;;;5092150;28;20055;-84
2024/02/29 08:59:43;;;;;;;7.35;1.33;;;;;;;;;;5082109;28;20048;-82
2024/02/29 09:02:13;;;;;;;8.63;1.58;;;;;;;;;;5072769;28;20044;-82
2024/02/29 09:04:44;;;;;;;7.43;1.30;;;;;;;;;;5055519;28;20041;-86
2024/02/29 09:07:13;;;;;;;5.85;1.48;;;;;;;;;;5072878;28;20083;-83
2024/02/29 09:09:43;;;;;;;9.77;1.30;;;;;;;;;;5053746;28;20040;-84
2024/02/29 09:12:17;;;;;;;7.60;1.52;;;;;;;;;;5073155;28;20045;-81
2024/02/29 09:14:49;;;;;;;5.90;1.90;;;;;;;;;;5075643;28;20048;-83
2024/02/29 09:17:20;;;;;;;5.45;1.95;;;;;;;;;;5057904;28;20414;-81
2024/02/29 09:19:50;;;;;;;8.45;1.50;;;;;;;;;;5076365;28;20052;-80
2024/02/29 09:22:20;;;;;;;7.53;1.65;;;;;;;;;;5058642;28;20494;-81
2024/02/29 09:24:50;;;;;;;3.35;1.27;;;;;;;;;;5076179;28;20063;-82
2024/02/29 09:27:20;;;;;;;4.95;1.20;;;;;;;;;;5057448;28;20052;-80
2024/02/29 09:29:51;;;;;;;5.45;1.52;;;;;;;;;;5075613;28;20036;-83
2024/02/29 09:32:21;;;;;;;7.90;1.63;;;;;;;;;;5076886;28;20049;-82
2024/02/29 09:34:51;;;;;;;8.25;1.50;;;;;;;;;;5076200;28;20040;-84
2024/02/29 09:37:22;;;;;;;9.48;1.23;;;;;;;;;;5058375;28;20376;-81
2024/02/29 09:39:52;;;;;;;3.90;1.48;;;;;;;;;;5041494;28;20072;-83
2024/02/29 09:42:26;;;;;;;3.17;1.02;;;;;;;;;;5076627;28;20497;-81
2024/02/29 09:44:57;;;;;;;4.85;1.10;;;;;;;;;;5076058;28;20521;-81
2024/02/29 09:47:28;;;;;;;5.13;1.30;;;;;;;;;;5075798;28;20051;-82
2024/02/29 09:49:59;;;;;;;4.97;1.13;;;;;;;;;;5075840;28;20049;-82
2024/02/29 09:52:38;;;;;;;5.82;1.30;;;;;;;;;;5059888;28;20051;-84
2024/02/29 09:55:14;;;;;;;5.05;1.38;;;;;;;;;;5076206;28;20486;-84
2024/02/29 09:57:45;;;;;;;5.60;1.63;;;;;;;;;;5075935;28;20055;-82
2024/02/29 10:00:17;;;;;;;5.93;1.83;;;;;;;;;;5057921;28;20045;-82
2024/02/29 10:02:49;;;;;;;5.50;1.33;;;;;;;;;;5058202;28;20379;-82
2024/02/29 10:05:24;;;;;;;6.78;1.30;;;;;;;;;;5075966;28;20051;-85
2024/02/29 10:07:54;;;;;;;7.95;1.50;;;;;;;;;;5075971;28;20047;-84
2024/02/29 10:10:25;;;;;;;3.78;1.38;;;;;;;;;;5058618;28;20048;-83
2024/02/29 10:12:56;;;;;;;3.33;1.40;;;;;;;;;;5075619;28;20041;-82
2024/02/29 10:15:28;;;;;;;5.82;1.73;;;;;;;;;;5057031;28;20439;-80
2024/02/29 10:17:58;;;;;;;4.40;1.83;;;;;;;;;;5056989;28;20049;-82
2024/02/29 10:20:32;;;;;;;9.98;2.58;;;;;;;;;;5076424;28;20055;-83
2024/02/29 10:23:15;;;;;;;11.63;2.20;;;;;;;;;;5075966;28;20048;-83
2024/02/29 10:25:46;;;;;;;3.88;1.30;;;;;;;;;;5075039;28;20127;-84
2024/02/29 10:28:16;;;;;;;6.88;1.88;;;;;;;;;;5056759;28;20052;-81
2024/02/29 10:30:56;;;;;;;6.35;1.70;;;;;;;;;;5057326;28;20075;-83
2024/02/29 10:33:28;;;;;;;7.70;2.40;;;;;;;;;;5057903;28;20434;-84
2024/02/29 10:36:13;;;;;;;7.43;1.55;;;;;;;;;;5057656;28;20059;-85
2024/02/29 10:38:43;;;;;;;4.65;2.00;;;;;;;;;;5059397;28;20367;-82
2024/02/29 10:41:16;;;;;;;9.18;1.40;;;;;;;;;;5094181;28;20037;-81
2024/02/29 10:43:51;;;;;;;7.47;1.83;;;;;;;;;;5055276;28;20057;-81
2024/02/29 10:46:22;;;;;;;8.23;2.15;;;;;;;;;;5072571;28;20044;-79
2024/02/29 10:49:03;;;;;;;7.00;2.38;;;;;;;;;;5037720;28;20422;-85
2024/02/29 10:51:58;;;;;;;5.63;1.92;;;;;;;;;;5093605;28;20040;-82
2024/02/29 10:54:42;;;;;;;9.23;2.30;;;;;;;;;;5091583;28;20051;-82
2024/02/29 10:57:16;;;;;;;8.80;2.03;;;;;;;;;;5091304;28;20043;-85
2024/02/29 11:00:02;;;;;;;8.05;2.25;;;;;;;;;;5080124;28;20049;-83
2024/02/29 11:02:34;;;;;;;6.90;2.35;;;;;;;;;;5054849;28;20057;-83
2024/02/29 11:05:07;;;;;;;5.68;1.83;;;;;;;;;;5073276;28;20049;-84
2024/02/29 11:07:39;;;;;;;12.63;3.20;;;;;;;;;;5058754;28;20517;-85
2024/02/29 11:10:09;;;;;;;6.70;2.33;;;;;;;;;;5085532;28;20047;-82
2024/02/29 11:12:45;;;;;;;6.90;2.30;;;;;;;;;;5087125;28;20063;-82
2024/02/29 11:15:27;;;;;;;2.13;1.05;;;;;;;;;;5080662;28;20494;-84
2024/02/29 11:17:59;;;;;;;8.40;1.70;;;;;;;;;;5089920;28;20052;-81
2024/02/29 11:20:29;;;;;;;3.35;1.50;;;;;;;;;;5091500;28;20421;-81
2024/02/29 11:23:04;;;;;;;4.47;1.30;;;;;;;;;;5092716;28;20490;-81
2024/02/29 11:25:43;;;;;;;2.47;1.00;;;;;;;;;;5067293;28;20063;-81
2024/02/29 11:28:13;;;;;;;2.70;0.80;;;;;;;;;;5091405;28;20044;-80
2024/02/29 11:30:51;;;;;;;3.33;0.73;;;;;;;;;;5074433;28;20049;-80
2024/02/29 11:33:21;;;;;;;6.43;1.27;;;;;;;;;;5074915;28;20047;-81
2024/02/29 11:35:55;;;;;;;3.38;0.98;;;;;;;;;;5074096;28;20033;-81
2024/02/29 11:38:26;;;;;;;3.17;1.20;;;;;;;;;;5074221;28;20059;-87
2024/02/29 11:41:20;;;;;;;4.30;1.05;;;;;;;;;;5084699;28;20493;-81
2024/02/29 11:43:50;;;;;;;2.63;0.90;;;;;;;;;;5075343;28;20048;-81
2024/02/29 11:46:20;;;;;;;4.03;1.60;;;;;;;;;;5073617;28;20045;-80
2024/02/29 11:48:52;;;;;;;5.05;1.05;;;;;;;;;;5072843;28;20048;-85
2024/02/29 11:51:28;;;;;;;5.40;1.13;;;;;;;;;;5055804;28;20051;-83
2024/02/29 11:53:58;;;;;;;3.22;1.50;;;;;;;;;;5074135;28;20406;-82
2024/02/29 11:56:29;;;;;;;3.60;1.77;;;;;;;;;;5074013;28;20059;-84
2024/02/29 11:59:03;;;;;;;9.05;1.85;;;;;;;;;;5088823;28;20028;-83
2024/02/29 12:01:33;;;;;;;5.32;2.03;;;;;;;;;;5072336;28;20055;-84
2024/02/29 12:04:06;;;;;;;5.82;2.10;;;;;;;;;;5062281;28;20044;-83
2024/02/29 12:06:39;;;;;;;7.03;2.20;;;;;;;;;;5092898;28;20040;-82
2024/02/29 12:09:12;;;;;;;5.93;2.70;;;;;;;;;;5066063;28;20051;-81
2024/02/29 12:11:44;;;;;;;5.45;2.67;;;;;;;;;;5085878;28;20043;-81
2024/02/29 12:14:15;;;;;;;5.60;2.50;;;;;;;;;;5085771;28;20394;-81
2024/02/29 12:16:46;;;;;;;6.85;2.70;;;;;;;;;;5091094;28;20048;-77
2024/02/29 12:19:17;;;;;;;9.02;3.38;;;;;;;;;;5072565;28;20047;-77
2024/02/29 12:21:47;;;;;;;9.57;3.50;;;;;;;;;;5072388;28;20044;-78
2024/02/29 12:24:18;;;;;;;9.07;4.53;;;;;;;;;;5091010;28;20054;-76
2024/02/29 12:26:49;;;;;;;16.15;4.72;;;;;;;;;;5060272;28;20052;-78
2024/02/29 12:29:19;;;;;;;9.23;5.88;;;;;;;;;;5084831;28;20049;-82
2024/02/29 12:31:50;;;;;;;10.95;5.68;;;;;;;;;;5078321;28;20517;-84
2024/02/29 12:34:20;;;;;;;9.65;4.72;;;;;;;;;;5085810;28;20063;-81
2024/02/29 12:36:50;;;;;;;7.13;4.30;;;;;;;;;;5059920;28;20051;-83
2024/02/29 12:39:21;;;;;;;10.20;5.13;;;;;;;;;;5080665;28;20055;-82
2024/02/29 12:41:52;;;;;;;9.05;3.97;;;;;;;;;;5080676;28;20040;-82
2024/02/29 12:44:25;;;;;;;8.38;3.35;;;;;;;;;;5067169;28;20040;-80
2024/02/29 12:46:57;;;;;;;6.47;2.85;;;;;;;;;;5080031;28;20036;-82
2024/02/29 12:49:28;;;;;;;5.28;2.47;;;;;;;;;;5084026;28;20051;-80
2024/02/29 12:51:58;;;;;;;7.38;2.70;;;;;;;;;;5085317;28;20049;-81
2024/02/29 12:54:28;;;;;;;7.22;2.85;;;;;;;;;;5085287;28;20056;-80
2024/02/29 12:56:59;;;;;;;5.60;3.03;;;;;;;;;;5088247;28;20044;-82
2024/02/29 12:59:29;;;;;;;;;;;;;;;;;;5080620;28;20047;-85
2024/02/29 13:02:02;;;;;;;4.63;2.10;;;;;;;;;;5083916;28;19921;-81
2024/02/29 13:04:34;;;;;;;4.22;2.20;;;;;;;;;;5086545;28;20032;-81
2024/02/29 13:07:05;;;;;;;4.57;2.08;;;;;;;;;;5081937;28;20044;-82
2024/02/29 13:09:37;;;;;;;8.70;2.00;;;;;;;;;;5086358;28;20044;-81
2024/02/29 13:12:07;;;;;;;4.78;1.92;;;;;;;;;;5061662;28;20494;-81
2024/02/29 13:14:39;;;;;;;7.28;1.60;;;;;;;;;;5056957;28;20056;-82
2024/02/29 13:17:11;;;;;;;3.15;1.80;;;;;;;;;;5084305;28;20537;-85
2024/02/29 13:19:41;;;;;;;4.22;1.85;;;;;;;;;;5085321;28;20048;-84
2024/02/29 13:22:12;;;;;;;2.67;1.50;;;;;;;;;;5065740;28;20048;-82
2024/02/29 13:24:44;;;;;;;4.55;1.27;;;;;;;;;;5089765;28;20051;-85
2024/02/29 13:27:15;;;;;;;4.32;1.38;;;;;;;;;;5074807;28;20044;-84
2024/02/29 13:29:45;;;;;;;4.57;1.65;;;;;;;;;;5086666;28;20047;-83
2024/02/29 13:32:16;;;;;;;4.28;1.65;;;;;;;;;;5086084;28;20052;-84
2024/02/29 13:34:46;;;;;;;5.22;1.20;;;;;;;;;;5082705;28;20060;-83
2024/02/29 13:37:17;;;;;;;2.75;1.13;;;;;;;;;;5083004;28;20115;-83
2024/02/29 13:39:48;;;;;;;3.78;1.40;;;;;;;;;;5087575;28;20044;-83
2024/02/29 13:42:18;;;;;;;5.65;2.00;;;;;;;;;;5057238;28;20391;-82
2024/02/29 13:44:48;;;;;;;2.20;1.30;;;;;;;;;;5081956;28;20048;-86
2024/02/29 13:47:19;;;;;;;4.05;1.10;;;;;;;;;;5077656;28;20044;-82
2024/02/29 13:49:49;;;;;;;4.80;1.10;;;;;;;;;;5076258;28;20055;-84
2024/02/29 13:52:19;;;;;;;4.28;1.05;;;;;;;;;;5081703;28;20040;-81
2024/02/29 13:54:51;;;;;;;3.53;1.65;;;;;;;;;;5092974;28;20051;-82
2024/02/29 13:57:23;;;;;;;2.47;1.08;;;;;;;;;;5093829;28;20040;-81
2024/02/29 13:59:54;;;;;;;3.97;1.35;;;;;;;;;;5064194;28;20036;-81
2024/02/29 14:02:24;;;;;;;2.05;1.00;;;;;;;;;;5073532;28;20041;-81
2024/02/29 14:04:55;;;;;;;6.32;1.08;;;;;;;;;;5075687;28;20478;-82
2024/02/29 14:07:25;;;;;;;3.97;1.20;;;;;;;;;;5077844;28;20041;-81
2024/02/29 14:09:56;;;;;;;2.50;1.17;;;;;;;;;;5085024;28;20040;-80
2024/02/29 14:12:27;;;;;;;4.43;1.40;;;;;;;;;;5078179;28;20081;-80
2024/02/29 14:14:57;;;;;;;5.30;1.60;;;;;;;;;;5082879;28;20040;-79
2024/02/29 14:17:28;;;;;;;2.70;1.35;;;;;;;;;;5083924;28;20055;-82
2024/02/29 14:19:59;;;;;;;2.53;1.20;;;;;;;;;;5081181;28;20159;-81
2024/02/29 14:22:29;;;;;;;3.92;0.95;;;;;;;;;;5080135;28;20075;-81
2024/02/29 14:24:59;;;;;;;1.70;0.90;;;;;;;;;;5082586;28;20044;-81
2024/02/29 14:27:30;;;;;;;2.92;1.13;;;;;;;;;;5083580;28;20051;-83
2024/02/29 14:30:00;;;;;;;1.95;1.27;;;;;;;;;;5082451;28;20043;-84
2024/02/29 14:32:30;;;;;;;1.30;0.88;;;;;;;;;;5080963;28;20055;-82
2024/02/29 14:35:00;;;;;;;1.85;1.33;;;;;;;;;;5080642;28;20390;-82
2024/02/29 14:37:32;;;;;;;2.38;1.02;;;;;;;;;;5087117;28;20044;-82
2024/02/29 14:40:06;;;;;;;2.33;0.90;;;;;;;;;;5080311;28;20044;-82
2024/02/29 14:42:37;;;;;;;1.55;0.90;;;;;;;;;;5074042;28;20044;-84
2024/02/29 14:45:08;;;;;;;5.18;0.90;;;;;;;;;;5073539;28;20048;-83
2024/02/29 14:47:38;;;;;;;2.35;0.93;;;;;;;;;;5056782;28;20052;-85
2024/02/29 14:50:09;;;;;;;2.00;0.90;;;;;;;;;;5074220;28;20410;-87
2024/02/29 14:52:40;;;;;;;1.85;0.80;;;;;;;;;;5074208;28;20489;-85
2024/02/29 14:55:13;;;;;;;1.83;0.90;;;;;;;;;;5056793;28;20060;-84
2024/02/29 14:57:44;;;;;;;2.28;1.00;;;;;;;;;;5073881;28;20044;-81
2024/02/29 15:00:16;;;;;;;3.70;0.90;;;;;;;;;;5056559;28;20167;-81
2024/02/29 15:02:47;;;;;;;1.73;0.82;;;;;;;;;;5093750;28;20039;-80
2024/02/29 15:05:17;;;;;;;2.17;1.25;;;;;;;;;;5086351;28;20044;-82
2024/02/29 15:07:48;;;;;;;4.18;1.70;;;;;;;;;;5076692;28;20410;-84